Time;durP1;ratioP1;P1;durP2;ratioP2;P2;SDS_P1;SDS_P2;PMS_P1;PMS_P2;Temp;Humidity;BMP_temperature;BMP_pressure;BME280_temperature;BME280_humidity;BME280_pressure;Samples;Min_cycle;Max_cycle;Signal;HPM_P1;HPM_P2
2022/06/20 00:01:21;;;;;;;8.80;5.80;;;;;;;23.29;29.60;99406.39;25140;1312;3026453;-66
2022/06/20 00:03:50;;;;;;;17.00;8.10;;;;;;;23.33;30.47;99408.15;25134;1312;3027185;-66
2022/06/20 00:06:21;;;;;;;27.80;14.50;;;;;;;23.31;29.87;99404.04;25111;1312;3027700;-63
2022/06/20 00:08:52;;;;;;;23.10;12.30;;;;;;;23.25;30.17;99404.34;25144;1312;3026834;-65
2022/06/20 00:11:30;;;;;;;27.70;15.20;;;;;;;23.22;30.24;99406.10;25104;1312;3026596;-64
2022/06/20 00:13:59;;;;;;;32.00;15.30;;;;;;;23.18;30.08;99401.77;25081;1312;3069915;-65
2022/06/20 00:16:33;;;;;;;29.10;14.80;;;;;;;23.16;29.93;99399.20;25154;1310;3026355;-63
2022/06/20 00:19:02;;;;;;;42.60;20.20;;;;;;;23.10;30.48;99399.95;25101;1312;3026212;-65
2022/06/20 00:21:31;;;;;;;37.80;19.90;;;;;;;23.04;31.99;99397.66;25090;1312;3028434;-65
2022/06/20 00:24:00;;;;;;;40.00;20.20;;;;;;;22.93;33.35;99401.00;25163;1312;3026839;-64
2022/06/20 00:26:30;;;;;;;36.10;19.00;;;;;;;22.86;33.75;99394.70;25140;1312;3053781;-63
2022/06/20 00:29:01;;;;;;;35.70;18.50;;;;;;;22.76;34.24;99392.90;25113;1312;3027350;-64
2022/06/20 00:31:30;;;;;;;37.60;17.50;;;;;;;22.68;34.74;99387.79;25121;1312;3026604;-67
2022/06/20 00:34:00;;;;;;;41.00;20.00;;;;;;;22.65;34.72;99386.70;25081;1311;3028915;-64
2022/06/20 00:36:29;;;;;;;31.20;17.80;;;;;;;22.59;34.77;99385.38;25094;1312;3052346;-64
2022/06/20 00:38:58;;;;;;;39.30;21.50;;;;;;;22.58;34.16;99386.25;25151;1312;3030158;-64
2022/06/20 00:41:29;;;;;;;40.20;20.90;;;;;;;22.55;34.28;99379.54;25098;1312;3054369;-66
2022/06/20 00:43:58;;;;;;;37.60;19.10;;;;;;;22.52;34.51;99374.42;25149;1312;3026531;-67
2022/06/20 00:46:32;;;;;;;38.40;17.70;;;;;;;22.46;36.06;99375.39;25126;1311;3026430;-64
2022/06/20 00:49:15;;;;;;;37.00;17.70;;;;;;;22.44;35.92;99380.46;25082;1312;3026975;-65
2022/06/20 00:51:54;;;;;;;36.60;19.20;;;;;;;22.37;35.79;99377.71;25102;1312;3054767;-65
2022/06/20 00:54:27;;;;;;;40.50;20.60;;;;;;;22.34;34.71;99374.91;25070;1311;3051282;-66
2022/06/20 00:57:12;;;;;;;33.60;17.00;;;;;;;22.32;35.88;99381.39;25155;1312;3026867;-65
2022/06/20 00:59:45;;;;;;;30.90;13.80;;;;;;;22.26;37.65;99375.45;25073;1312;3049230;-65
2022/06/20 01:02:21;;;;;;;26.10;13.50;;;;;;;22.22;38.08;99376.45;25178;1312;3026217;-65
2022/06/20 01:05:20;;;;;;;27.00;14.90;;;;;;;22.15;37.45;99376.27;25095;1312;3051550;-65
2022/06/20 01:07:59;;;;;;;32.00;16.90;;;;;;;22.11;37.15;99374.03;25084;1312;3058550;-69
2022/06/20 01:10:30;;;;;;;30.20;15.90;;;;;;;22.08;37.63;99373.84;25121;1312;3052675;-67
2022/06/20 01:13:03;;;;;;;33.50;16.60;;;;;;;22.03;36.89;99374.05;25101;1312;3026694;-66
2022/06/20 01:15:37;;;;;;;38.50;18.80;;;;;;;22.01;36.88;99373.05;25133;1312;3026840;-66
2022/06/20 01:18:24;;;;;;;34.50;16.00;;;;;;;21.99;37.26;99370.45;25075;1312;3071089;-64
2022/06/20 01:20:56;;;;;;;29.90;13.20;;;;;;;21.94;37.58;99371.69;25066;1312;3051757;-63
2022/06/20 01:23:30;;;;;;;28.90;12.60;;;;;;;21.90;38.27;99374.20;25069;1312;3027297;-67
2022/06/20 01:26:21;;;;;;;25.10;11.20;;;;;;;21.90;38.19;99375.71;25071;1312;3054719;-67
2022/06/20 01:28:53;;;;;;;19.20;10.10;;;;;;;21.85;38.05;99376.02;25136;1312;3056220;-64
2022/06/20 01:31:23;;;;;;;19.40;10.10;;;;;;;21.86;37.14;99372.17;25113;1312;3028208;-66
2022/06/20 01:33:52;;;;;;;20.50;9.20;;;;;;;21.87;36.32;99370.15;25076;1312;3026325;-66
2022/06/20 01:39:08;;;;;;;15.10;7.20;;;;;;;21.94;35.35;99367.21;25069;1312;3052440;-67
2022/06/20 01:44:25;;;;;;;8.70;4.50;;;;;;;22.03;34.08;99368.67;25088;1312;3059105;-65
2022/06/20 01:46:54;;;;;;;10.50;4.90;;;;;;;22.07;34.52;99374.21;25101;1312;3028673;-67
2022/06/20 01:49:23;;;;;;;11.30;5.10;;;;;;;22.10;35.01;99380.40;25116;1312;3054613;-67
2022/06/20 01:52:14;;;;;;;10.70;5.20;;;;;;;22.13;34.54;99382.79;25062;1313;3026513;-63
2022/06/20 01:54:46;;;;;;;10.40;4.90;;;;;;;22.13;33.97;99382.89;25089;1312;3049935;-67
2022/06/20 01:57:15;;;;;;;13.90;5.20;;;;;;;22.15;34.67;99381.66;25114;1312;3026113;-66
2022/06/20 01:59:54;;;;;;;9.00;4.00;;;;;;;22.16;35.07;99386.90;25130;1312;3026690;-66
2022/06/20 02:02:23;;;;;;;10.20;4.20;;;;;;;22.16;35.13;99388.14;25085;1312;3049765;-65
2022/06/20 02:04:53;;;;;;;8.20;4.10;;;;;;;22.16;34.67;99389.20;25100;1312;3026280;-65
2022/06/20 02:07:22;;;;;;;12.40;5.40;;;;;;;22.14;35.50;99391.05;25101;1312;3026942;-66
2022/06/20 02:09:51;;;;;;;7.70;4.10;;;;;;;22.15;37.05;99392.19;25062;1312;3051153;-66
2022/06/20 02:12:22;;;;;;;12.20;5.70;;;;;;;22.13;38.71;99392.55;25096;1312;3027550;-64
2022/06/20 02:14:55;;;;;;;14.20;6.60;;;;;;;22.09;39.25;99393.67;25022;1312;3026785;-65
2022/06/20 02:17:39;;;;;;;11.50;6.00;;;;;;;22.09;40.29;99399.98;25068;1312;3050247;-64
2022/06/20 02:20:13;;;;;;;12.20;5.90;;;;;;;22.09;40.99;99403.73;25138;1312;3053287;-66
2022/06/20 02:22:43;;;;;;;14.80;5.80;;;;;;;22.10;41.03;99403.40;25051;1313;3053696;-67
2022/06/20 02:25:14;;;;;;;14.90;6.80;;;;;;;22.09;40.73;99403.67;25096;1312;3026980;-66
2022/06/20 02:27:47;;;;;;;19.30;7.40;;;;;;;22.07;41.03;99406.28;25135;1312;3053717;-64
2022/06/20 02:30:16;;;;;;;15.70;6.60;;;;;;;22.06;41.26;99408.69;25132;1312;3027562;-66
2022/06/20 02:32:47;;;;;;;12.80;5.50;;;;;;;22.04;40.93;99410.33;25041;1312;3026190;-66
2022/06/20 02:35:17;;;;;;;11.70;6.30;;;;;;;22.04;40.60;99409.10;25074;1312;3026739;-68
2022/06/20 02:37:46;;;;;;;15.70;6.50;;;;;;;22.03;41.57;99414.73;25116;1311;3026388;-67
2022/06/20 02:40:17;;;;;;;16.50;7.50;;;;;;;22.03;41.54;99417.61;25015;1312;3026329;-65
2022/06/20 02:43:09;;;;;;;15.40;6.40;;;;;;;21.98;42.42;99422.38;25085;1312;3048789;-64
2022/06/20 02:45:38;;;;;;;15.90;6.20;;;;;;;21.91;42.34;99422.48;25143;1312;3052525;-64
2022/06/20 02:48:08;;;;;;;16.90;6.90;;;;;;;21.93;42.81;99421.33;25102;1312;3026436;-66
2022/06/20 02:50:58;;;;;;;13.50;7.00;;;;;;;21.95;43.10;99422.00;25069;1312;3026177;-64
2022/06/20 02:53:46;;;;;;;17.00;7.50;;;;;;;21.95;43.32;99426.61;25096;1312;3052351;-66
2022/06/20 02:56:18;;;;;;;23.10;9.40;;;;;;;21.89;42.99;99421.91;25090;1312;3055880;-65
2022/06/20 02:58:50;;;;;;;17.50;10.30;;;;;;;21.91;42.70;99420.83;25079;1312;3026336;-65
2022/06/20 03:02:01;;;;;;;15.90;8.40;;;;;;;21.94;42.27;99420.86;25096;1312;3028218;-62
2022/06/20 03:04:32;;;;;;;16.70;8.30;;;;;;;21.93;42.13;99421.34;25138;1312;3052107;-66
2022/06/20 03:07:13;;;;;;;15.50;8.00;;;;;;;21.94;41.55;99422.47;25097;1311;3026654;-66
2022/06/20 03:09:44;;;;;;;17.10;7.40;;;;;;;21.98;41.40;99425.77;25157;1312;3053267;-66
2022/06/20 03:12:14;;;;;;;19.30;8.20;;;;;;;22.01;40.61;99425.45;25075;1312;3026688;-68
2022/06/20 03:14:49;;;;;;;14.60;7.00;;;;;;;22.04;40.08;99425.84;25101;1312;3028543;-68
2022/06/20 03:17:20;;;;;;;12.30;6.70;;;;;;;22.09;39.62;99421.59;25142;1312;3052517;-65
2022/06/20 03:19:52;;;;;;;20.30;10.00;;;;;;;22.13;39.73;99421.45;25139;1312;3026530;-67
2022/06/20 03:22:23;;;;;;;17.20;9.50;;;;;;;22.16;39.99;99424.19;25063;1312;3026537;-64
2022/06/20 03:24:52;;;;;;;21.50;10.30;;;;;;;22.15;39.18;99425.03;25121;1312;3028074;-65
2022/06/20 03:27:26;;;;;;;27.90;11.80;;;;;;;22.20;40.34;99423.41;25084;1313;3027555;-64
2022/06/20 03:30:00;;;;;;;26.50;10.60;;;;;;;22.24;39.73;99421.70;25129;1312;3069522;-65
2022/06/20 03:32:29;;;;;;;34.60;13.30;;;;;;;22.28;39.98;99421.80;25177;1312;3026576;-65
2022/06/20 03:34:58;;;;;;;26.70;10.30;;;;;;;22.37;39.84;99424.29;25158;1311;3026821;-68
2022/06/20 03:37:28;;;;;;;35.00;14.90;;;;;;;22.43;39.36;99421.42;25120;1313;3070530;-64
2022/06/20 03:39:57;;;;;;;37.20;12.00;;;;;;;22.48;39.63;99423.27;25068;1313;3026759;-67
2022/06/20 03:42:26;;;;;;;34.00;13.80;;;;;;;22.53;38.89;99423.35;25082;1312;3050957;-65
2022/06/20 03:44:55;;;;;;;36.50;13.10;;;;;;;22.58;39.28;99422.63;25094;1312;3026142;-67
2022/06/20 03:47:30;;;;;;;38.40;15.60;;;;;;;22.59;38.67;99420.38;25094;1312;3054757;-67
2022/06/20 03:50:04;;;;;;;32.30;13.50;;;;;;;22.63;38.76;99416.89;25103;1312;3053604;-65
2022/06/20 03:52:44;;;;;;;45.00;16.10;;;;;;;22.69;38.98;99413.77;25101;1312;3026684;-64
2022/06/20 03:55:38;;;;;;;28.10;10.20;;;;;;;22.75;38.52;99408.90;25116;1312;3052375;-64
2022/06/20 03:58:09;;;;;;;41.50;14.30;;;;;;;22.82;38.34;99406.17;25122;1312;3051513;-65
2022/06/20 04:00:41;;;;;;;48.70;15.50;;;;;;;22.86;38.15;99404.72;25144;1312;3026893;-68
2022/06/20 04:03:24;;;;;;;50.20;16.70;;;;;;;22.91;39.02;99407.38;25110;1313;3026401;-64
2022/06/20 04:06:00;;;;;;;34.20;12.60;;;;;;;22.95;38.46;99407.02;25072;1312;3052516;-66
2022/06/20 04:10:57;;;;;;;37.40;13.80;;;;;;;23.01;38.85;99405.45;25121;1311;3057537;-66
2022/06/20 04:11:23;;;;;;;28.80;10.80;;;;;;;23.07;39.17;99404.91;25078;1312;3054320;-66
2022/06/20 04:14:09;;;;;;;35.30;12.00;;;;;;;23.14;39.30;99407.08;25111;1312;3027004;-67
2022/06/20 04:16:58;;;;;;;27.10;9.40;;;;;;;23.22;39.52;99406.67;25112;1312;3051332;-66
2022/06/20 04:19:30;;;;;;;21.80;9.10;;;;;;;23.28;39.63;99409.59;25118;1312;3055586;-64
2022/06/20 04:22:03;;;;;;;17.90;7.80;;;;;;;23.35;40.07;99409.38;25091;1310;3029266;-66
2022/06/20 04:24:50;;;;;;;26.00;7.50;;;;;;;23.39;40.27;99410.95;25153;1312;3055848;-65
2022/06/20 04:27:28;;;;;;;12.70;6.30;;;;;;;23.44;40.85;99407.40;25043;1312;3049973;-64
2022/06/20 04:29:58;;;;;;;15.80;5.90;;;;;;;23.50;40.50;99406.73;25093;1312;3055033;-67
2022/06/20 04:32:47;;;;;;;12.00;5.30;;;;;;;23.52;40.16;99403.98;25140;1316;3026906;-64
2022/06/20 04:35:33;;;;;;;18.00;4.80;;;;;;;23.56;41.42;99406.05;25122;1312;3072500;-66
2022/06/20 04:38:13;;;;;;;8.90;4.70;;;;;;;23.58;41.10;99405.94;25127;1312;3052126;-66
2022/06/20 04:40:56;;;;;;;10.70;3.90;;;;;;;23.64;40.95;99404.91;25145;1312;3054541;-63
2022/06/20 04:43:33;;;;;;;13.60;4.30;;;;;;;23.60;40.62;99409.33;25098;1312;3052210;-65
2022/06/20 04:46:05;;;;;;;8.00;4.30;;;;;;;23.63;40.86;99404.31;25124;1312;3055815;-66
2022/06/20 04:48:35;;;;;;;10.20;3.90;;;;;;;23.64;40.35;99404.91;25114;1312;3026405;-66
2022/06/20 04:51:09;;;;;;;10.10;3.20;;;;;;;23.72;40.19;99402.54;25131;1312;3026905;-64
2022/06/20 04:53:40;;;;;;;5.70;3.20;;;;;;;23.75;39.70;99405.35;25149;1312;3027511;-66
2022/06/20 04:56:12;;;;;;;5.60;2.90;;;;;;;23.77;39.70;99405.30;25089;1312;3026852;-66
2022/06/20 04:58:56;;;;;;;6.10;2.90;;;;;;;23.83;39.34;99405.86;25066;1313;3027159;-66
2022/06/20 05:01:26;;;;;;;4.00;2.30;;;;;;;23.85;39.60;99403.33;25108;1312;3055135;-66
2022/06/20 05:04:02;;;;;;;4.90;3.00;;;;;;;23.86;39.47;99407.88;25059;1312;3026293;-66
2022/06/20 05:06:31;;;;;;;3.90;2.20;;;;;;;23.88;39.60;99411.20;25091;1312;3056116;-64
2022/06/20 05:09:10;;;;;;;6.00;2.90;;;;;;;23.94;39.23;99410.90;25093;1313;3026088;-65
2022/06/20 05:11:42;;;;;;;4.00;2.30;;;;;;;24.03;39.82;99412.66;25077;1312;3052591;-64
2022/06/20 05:14:21;;;;;;;5.50;2.30;;;;;;;24.10;39.03;99407.70;25093;1312;3026451;-66
2022/06/20 05:16:53;;;;;;;8.60;2.30;;;;;;;24.19;38.59;99404.69;25105;1312;3071560;-69
2022/06/20 05:19:26;;;;;;;6.80;2.30;;;;;;;24.28;38.36;99404.86;25118;1315;3026875;-69
2022/06/20 05:21:58;;;;;;;6.70;1.90;;;;;;;24.33;37.85;99407.61;25156;1312;3053950;-67
2022/06/20 05:24:30;;;;;;;6.70;2.10;;;;;;;24.41;37.63;99407.29;25105;1312;3026990;-67
2022/06/20 05:27:06;;;;;;;10.40;2.10;;;;;;;24.45;36.63;99403.36;25132;1313;3026329;-70
2022/06/20 05:29:36;;;;;;;7.80;2.20;;;;;;;24.53;36.62;99408.52;25080;1312;3051316;-66
2022/06/20 05:32:06;;;;;;;5.80;2.30;;;;;;;24.60;36.77;99403.04;25109;1313;3026144;-66
2022/06/20 05:34:56;;;;;;;7.30;2.90;;;;;;;24.65;37.40;99399.83;25126;1315;3026409;-66
2022/06/20 05:37:31;;;;;;;11.40;3.90;;;;;;;24.75;37.97;99397.18;25085;1312;3071857;-65
2022/06/20 05:40:02;;;;;;;11.50;4.30;;;;;;;24.84;38.37;99397.30;25164;1311;3051838;-67
2022/06/20 05:42:31;;;;;;;14.70;5.40;;;;;;;24.89;38.97;99395.67;25106;1312;3026438;-65
2022/06/20 05:45:01;;;;;;;13.00;4.20;;;;;;;24.98;38.64;99397.77;25150;1312;3026476;-68
2022/06/20 05:47:32;;;;;;;14.10;4.30;;;;;;;25.06;39.24;99403.77;25164;1312;3048542;-69
2022/06/20 05:50:05;;;;;;;13.20;4.40;;;;;;;25.14;39.00;99401.34;25145;1312;3027703;-66
2022/06/20 05:52:35;;;;;;;17.40;4.80;;;;;;;25.23;38.56;99397.80;25107;1312;3026268;-68
2022/06/20 05:55:09;;;;;;;19.80;5.70;;;;;;;25.32;38.48;99399.59;25151;1312;3026992;-66
2022/06/20 05:57:40;;;;;;;14.50;4.80;;;;;;;25.41;38.66;99395.73;25137;1313;3055873;-67
2022/06/20 06:00:16;;;;;;;13.30;4.30;;;;;;;25.43;38.79;99389.89;25055;1312;3026784;-67
2022/06/20 06:02:54;;;;;;;13.10;4.60;;;;;;;25.49;38.42;99388.16;25071;1312;3056300;-67
2022/06/20 06:05:36;;;;;;;10.00;3.80;;;;;;;25.54;38.61;99387.33;25138;1312;3050759;-65
2022/06/20 06:08:33;;;;;;;9.00;3.60;;;;;;;25.61;38.22;99380.82;25115;1312;3055519;-65
2022/06/20 06:11:15;;;;;;;13.40;4.00;;;;;;;25.67;38.32;99378.52;25115;1312;3053934;-67
2022/06/20 06:13:47;;;;;;;7.70;3.70;;;;;;;25.72;38.37;99371.45;25136;1312;3068297;-66
2022/06/20 06:19:34;;;;;;;6.50;3.60;;;;;;;25.83;37.83;99371.91;25121;1312;3057243;-68
2022/06/20 06:22:09;;;;;;;11.50;3.40;;;;;;;25.89;37.01;99371.09;25200;1312;3054075;-66
2022/06/20 06:24:40;;;;;;;7.10;3.10;;;;;;;25.93;36.83;99371.36;25143;1312;3056954;-67
2022/06/20 06:27:16;;;;;;;7.40;3.20;;;;;;;25.90;37.39;99365.05;25118;1312;3029646;-69
2022/06/20 06:29:49;;;;;;;5.60;3.40;;;;;;;25.90;37.72;99360.90;25130;1312;3053345;-67
2022/06/20 06:32:24;;;;;;;8.20;2.90;;;;;;;25.93;37.57;99362.41;25106;1311;3051155;-67
2022/06/20 06:35:04;;;;;;;8.40;3.90;;;;;;;26.02;37.51;99359.80;25038;1315;3070950;-67
2022/06/20 06:38:14;;;;;;;8.50;3.30;;;;;;;26.13;37.20;99350.83;25157;1312;3052260;-66
2022/06/20 06:40:47;;;;;;;9.10;3.80;;;;;;;26.17;37.49;99341.97;25024;1319;3054896;-67
2022/06/20 06:43:32;;;;;;;10.10;3.60;;;;;;;26.19;38.24;99338.77;25100;1312;3026586;-68
2022/06/20 06:46:01;;;;;;;12.80;2.50;;;;;;;26.30;37.21;99342.39;25089;1312;3058682;-69
2022/06/20 06:48:52;;;;;;;4.40;2.40;;;;;;;26.41;36.36;99332.67;25094;1312;3026311;-69
2022/06/20 06:51:57;;;;;;;3.20;2.10;;;;;;;26.49;35.72;99327.99;25064;1315;3055126;-66
2022/06/20 06:54:48;;;;;;;4.90;2.30;;;;;;;26.54;35.62;99330.48;25108;1312;3051673;-65
2022/06/20 06:57:26;;;;;;;9.70;3.10;;;;;;;26.62;37.11;99332.45;25132;1312;3071048;-66
2022/06/20 07:00:05;;;;;;;2.60;1.90;;;;;;;26.65;36.61;99330.13;25191;1312;3051341;-67
2022/06/20 07:02:41;;;;;;;5.10;1.60;;;;;;;26.60;33.73;99326.79;25164;1311;3053396;-66
2022/06/20 07:05:24;;;;;;;3.10;1.90;;;;;;;26.56;33.72;99331.00;25137;1312;3055491;-65
2022/06/20 07:07:57;;;;;;;3.20;1.70;;;;;;;26.67;33.20;99332.95;25039;1312;3058888;-66
2022/06/20 07:10:52;;;;;;;7.30;1.90;;;;;;;26.72;32.73;99327.69;25093;1312;3050046;-65
2022/06/20 07:13:27;;;;;;;8.00;2.30;;;;;;;26.78;33.30;99329.58;25143;1312;3053505;-67
2022/06/20 07:15:58;;;;;;;4.90;2.20;;;;;;;26.82;34.11;99320.94;25251;1313;3056305;-68
2022/06/20 07:18:46;;;;;;;5.30;2.10;;;;;;;26.87;33.42;99322.86;25145;1312;3072853;-67
2022/06/20 07:21:17;;;;;;;4.20;1.90;;;;;;;26.93;33.14;99318.80;25081;1312;3052146;-65
2022/06/20 07:23:53;;;;;;;4.80;2.20;;;;;;;26.90;33.38;99310.17;25119;1312;3026409;-68
2022/06/20 07:26:23;;;;;;;4.50;1.90;;;;;;;27.05;32.94;99308.27;25109;1312;3051370;-68
2022/06/20 07:29:02;;;;;;;2.90;1.30;;;;;;;27.01;32.61;99303.85;25113;1312;3026438;-64
2022/06/20 07:31:56;;;;;;;2.50;1.90;;;;;;;27.14;32.17;99297.69;25145;1312;3052747;-65
2022/06/20 07:34:33;;;;;;;3.90;1.80;;;;;;;26.97;32.36;99308.19;25128;1312;3052599;-65
2022/06/20 07:37:13;;;;;;;4.60;2.20;;;;;;;26.96;32.36;99300.39;25116;1312;3059358;-65
2022/06/20 07:39:51;;;;;;;6.50;2.30;;;;;;;27.16;31.75;99293.92;25121;1312;3049544;-65
2022/06/20 07:42:22;;;;;;;3.80;2.20;;;;;;;27.23;32.13;99291.52;25096;1312;3053280;-65
2022/06/20 07:44:53;;;;;;;4.00;2.50;;;;;;;27.22;31.91;99293.39;25159;1312;3030250;-66
2022/06/20 07:47:35;;;;;;;4.40;2.30;;;;;;;27.21;32.41;99285.09;25135;1312;3026732;-64
2022/06/20 07:50:11;;;;;;;3.60;2.10;;;;;;;27.22;32.20;99275.67;25107;1312;3050687;-67
2022/06/20 07:52:58;;;;;;;2.90;2.10;;;;;;;27.38;32.30;99268.31;25095;1314;3052068;-65
2022/06/20 07:55:29;;;;;;;3.10;2.00;;;;;;;27.56;31.55;99261.59;25148;1312;3053448;-67
2022/06/20 07:58:14;;;;;;;3.80;2.30;;;;;;;27.68;31.42;99255.14;25133;1312;3026209;-69
2022/06/20 08:00:47;;;;;;;5.30;2.10;;;;;;;27.77;31.67;99255.17;25300;1312;3048947;-67
2022/06/20 08:03:21;;;;;;;3.10;1.70;;;;;;;27.80;31.53;99254.17;25180;1312;3026756;-65
2022/06/20 08:06:00;;;;;;;5.80;1.80;;;;;;;27.87;30.38;99255.30;25114;1312;3052005;-65
2022/06/20 08:09:07;;;;;;;6.60;2.10;;;;;;;27.95;30.29;99253.38;25243;1312;3069217;-65
2022/06/20 08:11:50;;;;;;;5.20;2.60;;;;;;;27.84;30.82;99247.64;25082;1318;3049108;-67
2022/06/20 08:14:40;;;;;;;5.30;2.40;;;;;;;27.96;30.06;99244.16;25197;1312;3055263;-68
2022/06/20 08:17:10;;;;;;;4.40;2.20;;;;;;;28.07;30.04;99242.28;25072;1312;3053245;-66
2022/06/20 08:19:41;;;;;;;3.40;1.60;;;;;;;28.13;29.34;99236.74;25038;1312;3026987;-69
2022/06/20 08:22:19;;;;;;;4.00;1.70;;;;;;;28.13;29.11;99228.89;25128;1312;3031872;-66
2022/06/20 08:25:10;;;;;;;4.50;1.40;;;;;;;28.23;28.84;99228.14;25132;1312;3052507;-70
2022/06/20 08:27:51;;;;;;;7.50;1.70;;;;;;;28.22;28.53;99227.95;25217;1312;3052469;-66
2022/06/20 08:30:36;;;;;;;5.90;1.70;;;;;;;28.29;28.33;99224.00;25149;1312;3071443;-66
2022/06/20 08:33:08;;;;;;;4.00;1.60;;;;;;;28.19;28.25;99220.92;25201;1312;3047840;-66
2022/06/20 08:35:39;;;;;;;10.40;2.10;;;;;;;28.26;28.56;99217.16;25182;1312;3027238;-65
2022/06/20 08:38:11;;;;;;;3.10;1.60;;;;;;;28.31;28.99;99214.90;25153;1312;3026399;-65
2022/06/20 08:41:07;;;;;;;6.30;2.10;;;;;;;28.38;28.55;99216.52;25199;1312;3058473;-64
2022/06/20 08:43:45;;;;;;;5.20;1.70;;;;;;;28.48;28.90;99215.31;25167;1312;3049676;-66
2022/06/20 08:46:41;;;;;;;4.70;1.80;;;;;;;28.48;28.18;99211.98;25098;1312;3056240;-66
2022/06/20 08:49:33;;;;;;;3.40;1.70;;;;;;;28.54;28.20;99204.92;25068;1312;3053898;-67
2022/06/20 08:52:14;;;;;;;2.80;1.70;;;;;;;28.60;28.09;99201.35;25057;1312;3071573;-64
2022/06/20 08:54:59;;;;;;;2.90;1.80;;;;;;;28.60;28.12;99200.28;25068;1312;3051318;-66
2022/06/20 08:57:50;;;;;;;2.60;1.50;;;;;;;28.63;27.34;99196.27;25222;1312;3052731;-64
2022/06/20 09:00:41;;;;;;;3.00;1.50;;;;;;;28.58;27.79;99194.92;25085;1312;3055284;-66
2022/06/20 09:03:53;;;;;;;3.80;2.00;;;;;;;28.78;27.83;99186.92;25182;1312;3057462;-66
2022/06/20 09:06:54;;;;;;;3.80;1.60;;;;;;;29.02;27.85;99183.38;25034;1312;3052727;-65
2022/06/20 09:09:45;;;;;;;3.40;1.60;;;;;;;29.12;27.51;99174.13;25089;1312;3052419;-66
2022/06/20 09:12:54;;;;;;;5.70;2.00;;;;;;;29.01;28.24;99181.33;25164;1312;3054027;-65
2022/06/20 09:15:32;;;;;;;3.00;1.60;;;;;;;28.84;28.72;99177.77;25035;1312;3069372;-66
2022/06/20 09:18:07;;;;;;;5.30;2.00;;;;;;;29.03;28.11;99169.88;25174;1312;3049783;-66
2022/06/20 09:20:46;;;;;;;3.40;1.60;;;;;;;29.09;28.88;99171.20;25124;1312;3054939;-68
2022/06/20 09:23:46;;;;;;;4.30;1.80;;;;;;;29.30;28.41;99174.91;25047;1313;3055103;-64
2022/06/20 09:27:54;;;;;;;3.40;1.90;;;;;;;29.15;28.19;99168.00;31404;1319;3026284;-66
2022/06/20 09:30:36;;;;;;;4.00;2.00;;;;;;;29.50;27.94;99157.17;24876;1323;3055412;-71
2022/06/20 09:33:09;;;;;;;3.40;1.70;;;;;;;29.82;27.67;99154.99;24878;1322;3055546;-68
2022/06/20 09:36:08;;;;;;;2.30;1.60;;;;;;;29.74;27.68;99159.92;24927;1322;3059374;-72
2022/06/20 09:38:40;;;;;;;2.60;1.50;;;;;;;29.62;27.22;99145.86;24907;1319;3049149;-66
2022/06/20 09:41:34;;;;;;;4.20;1.70;;;;;;;29.77;27.70;99141.59;24756;1319;3360325;-64
2022/06/20 09:44:21;;;;;;;2.30;1.40;;;;;;;29.63;27.50;99143.84;25129;1316;3052739;-73
2022/06/20 09:47:05;;;;;;;5.10;1.60;;;;;;;29.35;27.55;99149.75;25078;1315;3071469;-70
2022/06/20 09:50:10;;;;;;;3.90;1.40;;;;;;;29.34;27.80;99147.13;25130;1316;3049334;-66
2022/06/20 09:52:53;;;;;;;1.70;1.30;;;;;;;29.44;27.23;99140.43;25070;1315;3053542;-70
2022/06/20 09:55:48;;;;;;;2.70;1.40;;;;;;;29.41;26.86;99145.63;25078;1316;3054719;-64
2022/06/20 09:58:41;;;;;;;2.00;1.40;;;;;;;29.43;26.70;99137.98;25046;1316;3060659;-70
2022/06/20 10:01:26;;;;;;;8.20;1.50;;;;;;;29.65;26.85;99129.42;25059;1316;3049365;-71
2022/06/20 10:04:19;;;;;;;5.50;1.60;;;;;;;29.68;26.95;99134.44;25135;1316;3055823;-65
2022/06/20 10:07:13;;;;;;;5.70;1.40;;;;;;;29.68;27.10;99126.10;25085;1318;3053653;-74
2022/06/20 10:10:05;;;;;;;3.00;1.50;;;;;;;29.75;27.02;99133.82;25125;1316;3069361;-73
2022/06/20 10:12:58;;;;;;;4.20;1.40;;;;;;;29.90;26.67;99123.55;25204;1318;3048163;-70
2022/06/20 10:15:35;;;;;;;3.60;1.60;;;;;;;30.00;26.78;99118.32;25115;1316;3054915;-68
2022/06/20 10:18:44;;;;;;;2.20;1.60;;;;;;;30.14;26.50;99108.88;25156;1316;3053186;-66
2022/06/20 10:21:25;;;;;;;1.50;1.40;;;;;;;30.16;26.73;99103.52;25081;1316;3058728;-65
2022/06/20 10:24:32;;;;;;;2.90;1.50;;;;;;;30.38;26.48;99103.10;25082;1315;3049987;-68
2022/06/20 10:27:48;;;;;;;3.30;1.30;;;;;;;30.55;25.81;99099.23;25017;1315;3053252;-69
2022/06/20 10:30:18;;;;;;;;;;;;;;;30.52;25.79;99093.95;25048;1315;3053362;-67
2022/06/20 10:33:08;;;;;;;4.80;1.60;;;;;;;30.55;25.32;99088.93;25037;1315;3026442;-64
2022/06/20 10:36:17;;;;;;;2.70;1.50;;;;;;;30.64;25.09;99089.88;25062;1315;3051632;-66
2022/06/20 10:38:56;;;;;;;5.20;1.30;;;;;;;30.75;24.30;99082.42;24975;1316;3053044;-70
2022/06/20 10:41:48;;;;;;;3.90;1.60;;;;;;;30.80;25.01;99085.89;25047;1316;3055179;-67
2022/06/20 10:44:23;;;;;;;13.70;1.60;;;;;;;30.47;24.95;99095.19;25060;1316;3058668;-62
2022/06/20 10:47:04;;;;;;;3.90;1.40;;;;;;;30.54;24.91;99087.17;25079;1316;3050433;-64
2022/06/20 10:49:47;;;;;;;4.60;1.40;;;;;;;30.59;24.48;99082.96;25061;1316;3053854;-67
2022/06/20 10:52:29;;;;;;;3.40;1.40;;;;;;;30.63;24.66;99077.67;25054;1316;3050757;-68
2022/06/20 10:55:34;;;;;;;2.60;1.30;;;;;;;30.51;24.83;99079.30;25047;1317;3071378;-62
2022/06/20 10:58:28;;;;;;;3.40;1.30;;;;;;;30.75;24.96;99075.14;25077;1315;3051163;-60
2022/06/20 11:01:09;;;;;;;;;;;;;;;31.01;24.93;99077.50;25112;1316;3055395;-65
2022/06/20 11:03:50;;;;;;;3.80;1.60;;;;;;;30.99;24.67;99068.51;25105;1316;3054981;-66
2022/06/20 11:06:39;;;;;;;2.70;1.50;;;;;;;30.96;24.31;99065.39;25066;1315;3059180;-67
2022/06/20 11:09:11;;;;;;;4.00;1.60;;;;;;;30.94;25.05;99065.30;25092;1315;3052622;-62
2022/06/20 11:11:42;;;;;;;3.90;1.50;;;;;;;31.15;25.28;99069.36;25096;1315;3027597;-66
2022/06/20 11:14:45;;;;;;;3.50;1.60;;;;;;;31.44;24.76;99056.07;25050;1316;3026545;-65
2022/06/20 11:17:30;;;;;;;2.60;1.70;;;;;;;31.49;24.67;99065.14;25117;1315;3069219;-68
2022/06/20 11:20:05;;;;;;;2.70;1.40;;;;;;;31.48;24.13;99054.27;25014;1315;3052143;-68
2022/06/20 11:22:39;;;;;;;3.70;1.40;;;;;;;31.69;24.11;99057.84;25069;1316;3055209;-62
2022/06/20 11:25:33;;;;;;;3.00;1.50;;;;;;;31.69;23.97;99057.33;25174;1315;3053887;-65
2022/06/20 11:28:14;;;;;;;4.20;1.60;;;;;;;31.69;24.60;99052.58;25056;1316;3058683;-65
2022/06/20 11:30:58;;;;;;;3.60;1.60;;;;;;;31.83;24.70;99051.22;25038;1315;3052027;-63
2022/06/20 11:34:08;;;;;;;2.50;1.50;;;;;;;31.91;24.55;99044.81;24985;1315;3056051;-63
2022/06/20 11:36:43;;;;;;;3.20;1.50;;;;;;;32.14;24.27;99038.55;25040;1315;3053050;-66
2022/06/20 11:39:50;;;;;;;3.70;1.40;;;;;;;32.29;24.52;99035.70;25093;1316;3070836;-68
2022/06/20 11:42:57;;;;;;;5.40;1.70;;;;;;;32.14;24.72;99032.02;25010;1316;3049712;-65
2022/06/20 11:45:51;;;;;;;4.70;3.10;;;;;;;32.02;24.40;99026.68;25044;1315;3055471;-66
2022/06/20 11:48:39;;;;;;;4.60;1.90;;;;;;;32.20;24.32;99026.38;25136;1315;3054769;-73
2022/06/20 11:51:17;;;;;;;7.30;2.20;;;;;;;32.48;24.08;99024.86;25100;1314;3059242;-61
2022/06/20 11:54:15;;;;;;;7.10;1.70;;;;;;;32.69;23.76;99025.02;25046;1315;3050926;-62
2022/06/20 11:56:52;;;;;;;3.00;1.50;;;;;;;32.72;24.01;99017.41;25132;1315;3055510;-62
2022/06/20 11:59:56;;;;;;;6.20;1.70;;;;;;;32.89;23.74;99021.48;25039;1315;3051590;-68
2022/06/20 12:02:31;;;;;;;3.50;1.50;;;;;;;32.83;23.53;99014.65;25027;1319;3069211;-72
2022/06/20 12:05:20;;;;;;;4.80;1.20;;;;;;;32.85;24.16;99016.03;25064;1315;3051999;-68
2022/06/20 12:08:01;;;;;;;5.30;1.70;;;;;;;32.86;23.97;99010.34;25076;1315;3052449;-64
2022/06/20 12:10:46;;;;;;;5.10;1.70;;;;;;;33.15;23.65;99007.45;25066;1316;3054945;-68
2022/06/20 12:13:38;;;;;;;1.60;1.20;;;;;;;33.26;23.44;99007.92;25045;1315;3059318;-65
2022/06/20 12:16:10;;;;;;;4.80;1.50;;;;;;;33.24;23.05;99001.10;25015;1316;3053982;-64
2022/06/20 12:24:57;;;;;;;1.90;1.30;;;;;;;33.21;22.80;98992.23;25033;1315;3071551;-64